Time;durP1;ratioP1;P1;durP2;ratioP2;P2;SDS_P1;SDS_P2;PMS_P1;PMS_P2;Temp;Humidity;BMP_temperature;BMP_pressure;BME280_temperature;BME280_humidity;BME280_pressure;Samples;Min_cycle;Max_cycle;Signal;HPM_P1;HPM_P2
2021/12/30 00:01:18;;;;;;;7.65;3.45;;;10.30;94.50;;;;;;6094483;23;20002;-82
2021/12/30 00:03:45;;;;;;;8.93;3.33;;;10.30;94.50;;;;;;6070751;23;20032;-82
2021/12/30 00:06:12;;;;;;;7.18;3.30;;;10.30;94.50;;;;;;6094168;23;20022;-82
2021/12/30 00:08:37;;;;;;;8.75;3.05;;;10.20;94.50;;;;;;6118147;23;20113;-81
2021/12/30 00:11:06;;;;;;;8.65;2.85;;;10.20;94.50;;;;;;6116496;23;20041;-81
2021/12/30 00:13:32;;;;;;;6.70;2.75;;;10.20;94.60;;;;;;6120504;23;20002;-81
2021/12/30 00:15:58;;;;;;;4.55;2.40;;;10.20;94.60;;;;;;6093551;23;20005;-82
2021/12/30 00:18:24;;;;;;;9.30;2.60;;;10.20;94.60;;;;;;6092922;23;20422;-82
2021/12/30 00:20:50;;;;;;;6.80;2.92;;;10.20;94.70;;;;;;6092452;23;20037;-81
2021/12/30 00:23:16;;;;;;;5.63;2.40;;;10.20;94.80;;;;;;6091924;23;20006;-81
2021/12/30 00:25:42;;;;;;;5.63;2.40;;;10.20;94.70;;;;;;6120169;23;20014;-81
2021/12/30 00:28:13;;;;;;;5.07;2.10;;;10.30;94.80;;;;;;6092632;23;20002;-81
2021/12/30 00:30:40;;;;;;;6.50;2.47;;;10.20;94.70;;;;;;6116909;23;20014;-81
2021/12/30 00:33:06;;;;;;;4.75;2.22;;;10.20;94.80;;;;;;6120419;23;20017;-81
2021/12/30 00:35:32;;;;;;;7.32;2.20;;;10.20;94.70;;;;;;6115792;23;20026;-81
2021/12/30 00:37:59;;;;;;;6.25;2.55;;;10.40;94.70;;;;;;6117492;23;20013;-80
2021/12/30 00:40:25;;;;;;;5.75;2.30;;;10.30;94.70;;;;;;6092632;23;20010;-81
2021/12/30 00:42:51;;;;;;;6.80;2.47;;;10.40;94.70;;;;;;6069851;23;20504;-81
2021/12/30 00:45:17;;;;;;;8.00;2.40;;;10.40;94.60;;;;;;6118480;23;20010;-81
2021/12/30 00:47:43;;;;;;;5.88;2.33;;;10.50;94.60;;;;;;6120937;23;20006;-81
2021/12/30 00:50:09;;;;;;;7.95;2.70;;;10.50;94.60;;;;;;6093737;23;20010;-81
2021/12/30 00:52:35;;;;;;;8.90;2.83;;;10.60;94.50;;;;;;6117829;23;20002;-82
2021/12/30 00:55:03;;;;;;;7.00;2.60;;;10.60;94.50;;;;;;6093607;23;20032;-81
2021/12/30 00:57:28;;;;;;;4.97;2.35;;;10.70;94.50;;;;;;6117850;23;20079;-81
2021/12/30 00:59:54;;;;;;;7.60;2.72;;;10.80;94.50;;;;;;6118196;23;19998;-81
2021/12/30 01:02:20;;;;;;;8.00;2.50;;;10.80;94.40;;;;;;6093874;23;20425;-81
2021/12/30 01:04:46;;;;;;;6.68;2.42;;;10.80;94.40;;;;;;6119974;23;20036;-81
2021/12/30 01:07:12;;;;;;;6.47;1.92;;;10.80;94.30;;;;;;6094082;23;20010;-81
2021/12/30 01:09:38;;;;;;;5.85;2.20;;;10.90;94.30;;;;;;6120073;23;20060;-81
2021/12/30 01:12:04;;;;;;;5.05;1.95;;;10.90;94.40;;;;;;6093656;23;20093;-81
2021/12/30 01:14:31;;;;;;;5.38;2.03;;;10.90;94.40;;;;;;6093784;23;20452;-81
2021/12/30 01:17:11;;;;;;;5.95;1.90;;;10.90;94.40;;;;;;6117720;23;20033;-82
2021/12/30 01:19:42;;;;;;;5.63;1.98;;;10.90;94.40;;;;;;6097200;23;20381;-81
2021/12/30 01:22:13;;;;;;;6.82;2.10;;;10.90;94.40;;;;;;6071774;23;20088;-82
2021/12/30 01:24:38;;;;;;;4.07;1.58;;;10.90;94.40;;;;;;6119355;23;20487;-82
2021/12/30 01:27:04;;;;;;;6.10;1.52;;;11.00;94.40;;;;;;6119889;23;20006;-82
2021/12/30 01:29:31;;;;;;;6.53;2.00;;;11.00;94.40;;;;;;6093826;23;20357;-81
2021/12/30 01:31:57;;;;;;;5.30;1.83;;;11.10;94.40;;;;;;6069555;23;20096;-83
2021/12/30 01:34:23;;;;;;;7.43;1.90;;;11.10;94.40;;;;;;6117555;23;20093;-80
2021/12/30 01:36:49;;;;;;;5.28;1.70;;;11.10;94.30;;;;;;6118130;23;20067;-81
2021/12/30 01:39:17;;;;;;;4.00;1.67;;;11.20;94.30;;;;;;6120481;23;20449;-81
2021/12/30 01:41:44;;;;;;;6.05;1.83;;;11.20;94.30;;;;;;6094354;23;20006;-82
2021/12/30 01:44:10;;;;;;;6.43;2.25;;;11.20;94.30;;;;;;6069996;23;20006;-81
2021/12/30 01:46:40;;;;;;;5.95;1.70;;;11.20;94.30;;;;;;6119048;23;20064;-81
2021/12/30 01:49:06;;;;;;;4.10;1.60;;;11.30;94.30;;;;;;6093517;23;20021;-81
2021/12/30 01:51:31;;;;;;;6.47;1.92;;;11.30;94.30;;;;;;6116842;23;20018;-81
2021/12/30 01:53:58;;;;;;;8.18;2.30;;;11.30;94.60;;;;;;6091058;23;19998;-82
2021/12/30 01:56:24;;;;;;;4.55;1.88;;;11.40;94.30;;;;;;6093579;23;20485;-82
2021/12/30 01:58:49;;;;;;;5.45;2.00;;;11.40;94.30;;;;;;6116715;23;20083;-81
2021/12/30 02:01:15;;;;;;;7.53;2.20;;;11.40;94.30;;;;;;6092443;23;20071;-81
2021/12/30 02:03:41;;;;;;;6.00;1.80;;;11.30;94.30;;;;;;6119675;23;20006;-80
2021/12/30 02:06:07;;;;;;;8.48;2.50;;;11.40;94.30;;;;;;6117427;23;20013;-81
2021/12/30 02:08:32;;;;;;;8.32;2.38;;;11.40;94.30;;;;;;6115604;23;20002;-81
2021/12/30 02:10:58;;;;;;;8.23;2.70;;;11.40;94.30;;;;;;6114964;23;20010;-82
2021/12/30 02:13:24;;;;;;;8.15;3.03;;;11.50;94.30;;;;;;6092920;23;20330;-82
2021/12/30 02:15:50;;;;;;;6.25;2.50;;;11.50;94.30;;;;;;6116854;23;20441;-82
2021/12/30 02:18:17;;;;;;;10.23;2.58;;;11.50;94.50;;;;;;6117906;23;20158;-82
2021/12/30 02:20:48;;;;;;;11.25;2.78;;;11.50;94.30;;;;;;6094089;23;20545;-81
2021/12/30 02:23:32;;;;;;;5.65;2.30;;;11.50;94.30;;;;;;6093706;23;20010;-81
2021/12/30 02:26:02;;;;;;;5.15;2.10;;;11.50;94.30;;;;;;6119045;23;20013;-82
2021/12/30 02:28:30;;;;;;;6.30;2.20;;;11.50;94.30;;;;;;6092842;23;20052;-81
2021/12/30 02:30:59;;;;;;;7.07;2.72;;;11.50;94.30;;;;;;6117912;23;20425;-82
2021/12/30 02:33:26;;;;;;;4.72;2.08;;;11.50;94.40;;;;;;6117080;23;20001;-82
2021/12/30 02:35:54;;;;;;;5.38;1.98;;;11.60;94.40;;;;;;6093569;23;20009;-82
2021/12/30 02:38:21;;;;;;;8.35;2.08;;;11.40;94.30;;;;;;6117357;23;20002;-82
2021/12/30 02:40:51;;;;;;;5.30;1.88;;;11.60;94.40;;;;;;6117016;23;20063;-82
2021/12/30 02:43:21;;;;;;;6.25;2.15;;;11.50;94.50;;;;;;6117291;23;20010;-82
2021/12/30 02:45:49;;;;;;;5.68;2.10;;;11.50;94.40;;;;;;6118548;23;20003;-82
2021/12/30 02:48:19;;;;;;;2.83;1.52;;;11.60;94.50;;;;;;6093421;23;20380;-83
2021/12/30 02:50:49;;;;;;;4.22;1.40;;;11.60;94.50;;;;;;6069298;23;20045;-83
2021/12/30 02:53:15;;;;;;;3.63;1.70;;;11.60;94.50;;;;;;6093222;23;20019;-83
2021/12/30 02:55:43;;;;;;;5.40;1.92;;;11.50;94.50;;;;;;6092384;23;20038;-82
2021/12/30 02:58:12;;;;;;;5.97;2.08;;;11.50;94.50;;;;;;6117459;23;20491;-82
2021/12/30 03:00:39;;;;;;;5.88;2.03;;;11.50;94.50;;;;;;6116766;23;20012;-82
2021/12/30 03:03:05;;;;;;;4.88;2.00;;;11.60;94.60;;;;;;6093317;23;20006;-82
2021/12/30 03:05:31;;;;;;;6.43;2.08;;;11.50;94.60;;;;;;6119058;23;20448;-82
2021/12/30 03:07:57;;;;;;;6.50;1.70;;;11.60;94.60;;;;;;6116592;23;20434;-82
2021/12/30 03:10:25;;;;;;;4.38;2.10;;;11.60;94.60;;;;;;6117098;23;20095;-82
2021/12/30 03:12:56;;;;;;;4.65;2.13;;;11.60;94.60;;;;;;6092954;23;20013;-83
2021/12/30 03:15:23;;;;;;;5.47;2.15;;;11.50;94.60;;;;;;6093511;23;20014;-83
2021/12/30 03:17:48;;;;;;;3.17;1.70;;;11.50;94.60;;;;;;6068726;23;20006;-83
2021/12/30 03:20:14;;;;;;;6.25;2.00;;;11.60;94.60;;;;;;6117808;23;20372;-83
2021/12/30 03:22:43;;;;;;;5.00;2.17;;;11.50;94.60;;;;;;6094289;23;20002;-83
2021/12/30 03:25:10;;;;;;;4.93;2.22;;;11.50;94.60;;;;;;6116890;23;20006;-83
2021/12/30 03:27:36;;;;;;;4.90;2.33;;;11.60;94.70;;;;;;6069336;23;20026;-83
2021/12/30 03:30:06;;;;;;;5.55;2.22;;;11.50;94.60;;;;;;6092829;23;20006;-83
2021/12/30 03:32:31;;;;;;;3.65;1.90;;;11.60;94.70;;;;;;6068878;23;20381;-83
2021/12/30 03:34:57;;;;;;;3.78;1.60;;;11.60;94.60;;;;;;6092575;23;20055;-83
2021/12/30 03:37:23;;;;;;;4.03;1.58;;;11.60;94.70;;;;;;6092798;23;20065;-83
2021/12/30 03:39:49;;;;;;;4.72;1.85;;;11.60;94.70;;;;;;6116589;23;20422;-83
2021/12/30 03:42:16;;;;;;;5.13;1.90;;;11.60;94.70;;;;;;6092942;23;20446;-83
2021/12/30 03:44:43;;;;;;;5.28;1.77;;;11.70;94.70;;;;;;6092768;23;20006;-83
2021/12/30 03:47:13;;;;;;;5.95;2.00;;;11.70;94.70;;;;;;6093844;23;20385;-84
2021/12/30 03:49:44;;;;;;;5.57;2.00;;;11.60;94.70;;;;;;6094295;23;20014;-83
2021/12/30 03:52:11;;;;;;;6.03;1.80;;;11.60;94.70;;;;;;6070022;23;20010;-82
2021/12/30 03:54:37;;;;;;;5.38;1.85;;;11.70;94.70;;;;;;6068714;23;20318;-83
2021/12/30 03:57:03;;;;;;;4.03;1.80;;;11.60;94.60;;;;;;6092708;23;20007;-83
2021/12/30 03:59:28;;;;;;;3.95;1.95;;;11.70;94.70;;;;;;6092241;23;20322;-83
2021/12/30 04:01:54;;;;;;;5.97;2.30;;;11.70;94.70;;;;;;6092521;23;20453;-82
2021/12/30 04:04:20;;;;;;;4.45;1.92;;;11.70;94.70;;;;;;6093005;23;20003;-82
2021/12/30 04:06:46;;;;;;;5.45;1.80;;;11.60;94.60;;;;;;6118759;23;19999;-83
2021/12/30 04:09:12;;;;;;;3.38;1.83;;;11.70;94.70;;;;;;6092631;23;20038;-83
2021/12/30 04:11:38;;;;;;;6.60;2.75;;;11.70;94.60;;;;;;6092711;23;20014;-82
2021/12/30 04:14:04;;;;;;;5.78;2.70;;;11.70;94.70;;;;;;6068073;23;20017;-81
2021/12/30 04:16:30;;;;;;;6.85;3.17;;;11.90;94.70;;;;;;6117992;23;20308;-81
2021/12/30 04:18:56;;;;;;;6.82;2.47;;;11.80;94.60;;;;;;6092338;23;20028;-82
2021/12/30 04:21:24;;;;;;;6.88;2.83;;;11.90;94.60;;;;;;6093150;23;20042;-82
2021/12/30 04:23:50;;;;;;;6.57;2.50;;;11.90;94.60;;;;;;6117852;23;20015;-83
2021/12/30 04:26:16;;;;;;;5.13;2.30;;;11.90;94.60;;;;;;6092526;23;20060;-82
2021/12/30 04:28:44;;;;;;;6.55;2.50;;;11.90;94.60;;;;;;6094175;23;20014;-81
2021/12/30 04:31:10;;;;;;;5.45;2.70;;;12.00;94.60;;;;;;6121044;23;20032;-82
2021/12/30 04:33:35;;;;;;;6.97;2.67;;;12.00;94.60;;;;;;6068981;23;20010;-82
2021/12/30 04:36:01;;;;;;;6.53;2.72;;;12.00;94.60;;;;;;6118164;23;20005;-82
2021/12/30 04:38:29;;;;;;;5.35;2.58;;;11.90;94.60;;;;;;6094062;23;19998;-82
2021/12/30 04:40:55;;;;;;;6.20;2.50;;;12.00;94.80;;;;;;6118554;23;20332;-82
2021/12/30 04:43:22;;;;;;;5.03;2.40;;;12.10;94.60;;;;;;6119735;23;20076;-82
2021/12/30 04:45:48;;;;;;;4.45;2.40;;;12.00;94.60;;;;;;6093634;23;20081;-82
2021/12/30 04:48:15;;;;;;;5.13;2.53;;;12.10;94.60;;;;;;6094324;23;20010;-82
2021/12/30 04:50:44;;;;;;;4.80;2.50;;;12.10;94.60;;;;;;6118443;23;20065;-82
2021/12/30 04:53:10;;;;;;;4.55;2.25;;;12.10;94.60;;;;;;6120289;23;20418;-82
2021/12/30 04:55:36;;;;;;;5.45;2.50;;;12.10;94.90;;;;;;6119929;23;20081;-82
2021/12/30 04:58:04;;;;;;;4.57;2.20;;;12.10;94.60;;;;;;6119972;23;20075;-82
2021/12/30 05:00:31;;;;;;;3.65;2.10;;;12.10;94.60;;;;;;6094498;23;20442;-82
2021/12/30 05:05:40;;;;;;;3.92;1.80;;;12.10;94.70;;;;;;6119792;23;20021;-81
2021/12/30 05:08:06;;;;;;;4.53;2.22;;;12.10;94.70;;;;;;6117207;23;20006;-82
2021/12/30 05:10:32;;;;;;;4.63;2.15;;;12.10;94.70;;;;;;6092944;23;20883;-82
2021/12/30 05:13:00;;;;;;;4.57;1.85;;;12.10;94.70;;;;;;6086534;23;20035;-82
2021/12/30 05:15:25;;;;;;;4.55;2.20;;;12.20;94.70;;;;;;6093674;23;20016;-82
2021/12/30 05:17:51;;;;;;;3.35;1.77;;;12.10;94.70;;;;;;6116572;23;20077;-83
2021/12/30 05:20:17;;;;;;;3.05;1.52;;;12.20;94.70;;;;;;6068571;23;20434;-82
2021/12/30 05:22:43;;;;;;;2.92;1.50;;;12.10;94.70;;;;;;6120220;23;20002;-82
2021/12/30 05:25:11;;;;;;;2.80;1.42;;;12.10;94.80;;;;;;6115322;23;20062;-83
2021/12/30 05:27:37;;;;;;;3.42;1.67;;;12.10;94.80;;;;;;6092672;23;20326;-82
2021/12/30 05:30:05;;;;;;;2.30;1.00;;;12.10;94.80;;;;;;6091511;23;20376;-82
2021/12/30 05:32:31;;;;;;;2.65;1.30;;;12.10;94.80;;;;;;6116577;23;20017;-82
2021/12/30 05:34:56;;;;;;;2.97;1.40;;;12.10;94.80;;;;;;6068587;23;20014;-82
2021/12/30 05:37:22;;;;;;;2.60;1.35;;;12.20;94.80;;;;;;6119772;23;20444;-82
2021/12/30 05:39:48;;;;;;;3.10;1.40;;;12.20;94.80;;;;;;6115394;23;20442;-82
2021/12/30 05:42:14;;;;;;;2.15;1.10;;;12.20;94.80;;;;;;6092342;23;20013;-82
2021/12/30 05:44:40;;;;;;;2.65;1.33;;;12.20;94.80;;;;;;6116624;23;20405;-83
2021/12/30 05:47:06;;;;;;;2.22;1.30;;;12.20;94.80;;;;;;6093335;23;20018;-83
2021/12/30 05:49:32;;;;;;;2.80;1.17;;;12.20;94.80;;;;;;6116676;23;20279;-83
2021/12/30 05:51:58;;;;;;;2.20;1.20;;;12.30;94.80;;;;;;6091293;23;20006;-83
2021/12/30 05:54:24;;;;;;;1.70;1.10;;;12.20;94.80;;;;;;6067717;23;20002;-83
2021/12/30 05:56:50;;;;;;;2.85;1.35;;;12.40;94.90;;;;;;6068338;23;20022;-82
2021/12/30 05:59:15;;;;;;;2.28;1.45;;;12.30;94.80;;;;;;6091662;23;20059;-84
2021/12/30 06:01:41;;;;;;;2.10;1.50;;;12.30;94.80;;;;;;6116378;23;20430;-83
2021/12/30 06:04:07;;;;;;;3.92;1.52;;;12.40;94.80;;;;;;6067163;23;20014;-83
2021/12/30 06:06:33;;;;;;;2.38;1.40;;;12.40;94.80;;;;;;6091900;23;20006;-83
2021/12/30 06:08:59;;;;;;;3.08;1.75;;;12.30;94.70;;;;;;6116600;23;20006;-83
2021/12/30 06:11:24;;;;;;;3.08;1.92;;;12.30;94.70;;;;;;6119858;23;20010;-82
2021/12/30 06:13:50;;;;;;;3.70;2.20;;;12.40;94.80;;;;;;6132880;23;20005;-82
2021/12/30 06:16:17;;;;;;;3.20;2.00;;;12.40;94.80;;;;;;6119770;23;20006;-83
2021/12/30 06:18:42;;;;;;;3.78;2.20;;;12.40;94.80;;;;;;6094032;23;20024;-82
2021/12/30 06:21:08;;;;;;;2.80;1.90;;;12.30;94.80;;;;;;6066758;23;20418;-82
2021/12/30 06:23:34;;;;;;;2.90;1.90;;;12.40;94.80;;;;;;6116004;23;20053;-82
2021/12/30 06:26:00;;;;;;;3.28;2.10;;;12.40;94.80;;;;;;6116197;23;20025;-82
2021/12/30 06:28:25;;;;;;;4.82;2.80;;;12.30;94.80;;;;;;6091786;23;20096;-82
2021/12/30 06:30:51;;;;;;;4.45;2.85;;;12.50;94.80;;;;;;6117536;23;20503;-81
2021/12/30 06:33:19;;;;;;;6.25;3.50;;;12.50;94.80;;;;;;6117842;23;20002;-81
2021/12/30 06:35:45;;;;;;;5.03;3.15;;;12.50;94.80;;;;;;6119865;23;19998;-81
2021/12/30 06:38:10;;;;;;;7.13;4.10;;;12.60;94.80;;;;;;6117389;23;20037;-80
2021/12/30 06:40:36;;;;;;;7.35;4.53;;;12.60;94.80;;;;;;6069842;23;20034;-80
2021/12/30 06:43:02;;;;;;;8.23;4.90;;;12.70;94.70;;;;;;6117990;23;20076;-80
2021/12/30 06:45:28;;;;;;;6.97;4.72;;;12.70;94.70;;;;;;6117504;23;20326;-81
2021/12/30 06:47:53;;;;;;;6.95;3.72;;;12.70;94.60;;;;;;6093601;23;20013;-81
2021/12/30 06:50:22;;;;;;;7.65;3.65;;;12.70;94.60;;;;;;6117535;23;20014;-82
2021/12/30 06:52:49;;;;;;;6.70;4.22;;;12.80;94.60;;;;;;6117804;23;20003;-81
2021/12/30 06:55:15;;;;;;;7.13;4.75;;;12.80;94.60;;;;;;6093468;23;20077;-81
2021/12/30 06:57:41;;;;;;;7.63;4.93;;;12.80;94.60;;;;;;6093262;23;20002;-81
2021/12/30 07:00:09;;;;;;;7.28;4.75;;;12.80;94.60;;;;;;6093442;23;20390;-81
2021/12/30 07:02:35;;;;;;;7.70;4.65;;;12.80;94.60;;;;;;6117653;23;20134;-80
2021/12/30 07:05:02;;;;;;;8.02;4.93;;;12.70;94.60;;;;;;6119111;23;20022;-82
2021/12/30 07:07:27;;;;;;;7.60;4.78;;;12.80;94.60;;;;;;6068942;23;20002;-81
2021/12/30 07:09:53;;;;;;;5.90;3.92;;;12.80;94.60;;;;;;6093221;23;20006;-81
2021/12/30 07:12:19;;;;;;;6.28;4.72;;;12.70;94.60;;;;;;6093377;23;20010;-81
2021/12/30 07:14:45;;;;;;;7.82;4.45;;;12.70;94.60;;;;;;6118830;23;20330;-81
2021/12/30 07:17:10;;;;;;;7.90;4.60;;;12.70;94.60;;;;;;6117101;23;20003;-81
2021/12/30 07:19:36;;;;;;;8.63;5.32;;;12.70;94.70;;;;;;6092127;23;20029;-81
2021/12/30 07:22:02;;;;;;;7.45;4.65;;;12.70;94.60;;;;;;6067308;23;20029;-81
2021/12/30 07:24:28;;;;;;;6.22;4.40;;;12.70;94.60;;;;;;6090502;23;20322;-81
2021/12/30 07:26:54;;;;;;;9.25;5.22;;;12.70;94.70;;;;;;6093421;23;20006;-82
2021/12/30 07:29:20;;;;;;;8.52;5.15;;;12.70;94.60;;;;;;6117593;23;20385;-81
2021/12/30 07:31:46;;;;;;;7.47;4.70;;;12.70;94.70;;;;;;6117231;23;20113;-82
2021/12/30 07:34:12;;;;;;;6.05;4.50;;;12.80;94.70;;;;;;6093147;23;20002;-81
2021/12/30 07:36:37;;;;;;;6.85;4.55;;;12.80;94.60;;;;;;6093626;23;20006;-81
2021/12/30 07:39:04;;;;;;;8.05;5.30;;;12.80;94.60;;;;;;6093654;23;20006;-81
2021/12/30 07:41:30;;;;;;;7.63;5.07;;;12.80;94.60;;;;;;6117719;23;20063;-81
2021/12/30 07:43:56;;;;;;;7.00;4.90;;;12.80;94.60;;;;;;6118570;23;20002;-82
2021/12/30 07:46:22;;;;;;;6.47;4.00;;;12.80;94.60;;;;;;6068974;23;20002;-81
2021/12/30 07:48:48;;;;;;;5.75;4.13;;;12.90;94.60;;;;;;6118774;23;20018;-82
2021/12/30 07:51:14;;;;;;;5.90;4.00;;;12.80;94.60;;;;;;6092394;23;20045;-81
2021/12/30 07:53:40;;;;;;;7.07;4.72;;;12.90;94.70;;;;;;6117436;23;20009;-81
2021/12/30 07:56:07;;;;;;;7.70;5.40;;;12.90;94.70;;;;;;6092813;23;20085;-81
2021/12/30 07:58:33;;;;;;;9.05;5.00;;;12.90;94.70;;;;;;6117474;23;20009;-82
2021/12/30 08:00:59;;;;;;;7.38;4.50;;;12.90;94.60;;;;;;6093639;23;20079;-81
2021/12/30 08:03:25;;;;;;;7.53;4.80;;;13.00;94.60;;;;;;6119386;23;20013;-81
2021/12/30 08:05:59;;;;;;;7.78;4.88;;;13.10;94.60;;;;;;6124253;23;20006;-82
2021/12/30 08:08:26;;;;;;;8.23;4.53;;;13.00;94.60;;;;;;6013162;23;20042;-84
2021/12/30 08:10:54;;;;;;;8.13;4.70;;;13.10;94.60;;;;;;6152276;23;20041;-83
2021/12/30 08:13:19;;;;;;;7.82;4.38;;;13.20;94.60;;;;;;6136385;23;20018;-82
2021/12/30 08:15:46;;;;;;;8.35;4.53;;;13.10;94.60;;;;;;6123102;23;20037;-83
2021/12/30 08:18:13;;;;;;;7.22;4.07;;;13.20;94.60;;;;;;6123741;23;20465;-83
2021/12/30 08:20:39;;;;;;;6.35;4.07;;;13.20;94.50;;;;;;6100013;23;20033;-83
2021/12/30 08:23:08;;;;;;;6.22;3.65;;;13.20;94.50;;;;;;6125381;23;20014;-84
2021/12/30 08:25:34;;;;;;;5.55;3.67;;;13.30;94.50;;;;;;6096516;23;20157;-82
2021/12/30 08:28:00;;;;;;;5.68;3.30;;;13.40;94.50;;;;;;6124564;23;20018;-83
2021/12/30 08:30:26;;;;;;;5.88;3.22;;;13.40;94.40;;;;;;6098706;23;20013;-83
2021/12/30 08:32:52;;;;;;;5.22;3.35;;;13.40;94.40;;;;;;6123637;23;20021;-82
2021/12/30 08:35:21;;;;;;;5.20;3.08;;;13.40;94.40;;;;;;6129428;23;20009;-83
2021/12/30 08:37:48;;;;;;;5.00;2.67;;;13.40;94.40;;;;;;6100068;23;20065;-82
2021/12/30 08:40:15;;;;;;;4.75;2.72;;;13.50;94.40;;;;;;6041621;23;20011;-83
2021/12/30 08:42:41;;;;;;;4.25;2.55;;;13.50;94.40;;;;;;6122209;23;20010;-83
2021/12/30 08:45:08;;;;;;;5.13;2.78;;;13.50;94.40;;;;;;6105424;23;20060;-83
2021/12/30 08:47:35;;;;;;;4.28;2.80;;;13.40;94.40;;;;;;6074542;23;20089;-82
2021/12/30 08:50:02;;;;;;;4.80;3.00;;;13.50;94.40;;;;;;6123424;23;20414;-82
2021/12/30 08:52:29;;;;;;;4.85;3.22;;;13.60;94.40;;;;;;6124218;23;20014;-83
2021/12/30 08:55:00;;;;;;;5.38;3.30;;;13.60;94.40;;;;;;6075995;23;20002;-83
2021/12/30 08:57:25;;;;;;;4.70;2.90;;;13.60;94.30;;;;;;6099567;23;20002;-83
2021/12/30 08:59:51;;;;;;;5.47;3.42;;;13.60;94.30;;;;;;6120226;23;20010;-83
2021/12/30 09:02:17;;;;;;;5.65;3.70;;;13.60;94.30;;;;;;6097982;23;19998;-82
2021/12/30 09:04:46;;;;;;;5.95;3.92;;;13.60;94.30;;;;;;6124206;23;20006;-82
2021/12/30 09:07:13;;;;;;;6.13;3.28;;;13.60;94.20;;;;;;6122513;23;20013;-83
2021/12/30 09:09:40;;;;;;;6.53;3.97;;;13.60;94.20;;;;;;6124885;23;20025;-83
2021/12/30 09:12:09;;;;;;;5.90;4.13;;;13.70;94.30;;;;;;6123077;23;20045;-82
2021/12/30 09:14:35;;;;;;;5.78;3.90;;;13.70;94.20;;;;;;6121053;23;20016;-81
2021/12/30 09:17:01;;;;;;;5.55;3.28;;;13.70;94.20;;;;;;6096296;23;19998;-80
2021/12/30 09:19:27;;;;;;;4.85;3.33;;;13.70;94.20;;;;;;6091199;23;20022;-79
2021/12/30 09:21:52;;;;;;;6.25;3.63;;;13.80;94.20;;;;;;6069677;23;20075;-81
2021/12/30 09:24:18;;;;;;;5.63;3.03;;;13.70;94.10;;;;;;6093957;23;20025;-81
2021/12/30 09:26:59;;;;;;;5.28;3.00;;;13.80;94.10;;;;;;6069831;23;20002;-81
2021/12/30 09:29:26;;;;;;;4.80;2.83;;;13.80;94.20;;;;;;6042771;23;20015;-81
2021/12/30 09:31:54;;;;;;;4.50;2.60;;;13.80;94.10;;;;;;6022347;23;20160;-82
2021/12/30 09:34:20;;;;;;;4.43;2.08;;;13.70;94.10;;;;;;6035617;23;20076;-79
2021/12/30 09:36:47;;;;;;;3.17;2.00;;;13.80;94.10;;;;;;6036760;23;20413;-83
2021/12/30 09:39:15;;;;;;;3.80;2.10;;;13.70;94.10;;;;;;6060005;23;20007;-80
2021/12/30 09:41:44;;;;;;;4.38;2.33;;;13.80;94.10;;;;;;6011271;23;20034;-81
2021/12/30 09:44:11;;;;;;;4.78;2.17;;;13.80;94.10;;;;;;6011560;23;20011;-79
2021/12/30 09:46:38;;;;;;;3.95;2.17;;;13.80;94.10;;;;;;6058948;23;20034;-80
2021/12/30 09:49:06;;;;;;;5.25;2.08;;;13.80;94.00;;;;;;6034957;23;20544;-80
2021/12/30 09:51:33;;;;;;;4.40;2.17;;;13.90;94.10;;;;;;6011377;23;20046;-79
2021/12/30 09:54:01;;;;;;;2.58;1.70;;;13.90;94.00;;;;;;6011899;23;20042;-79
2021/12/30 09:56:27;;;;;;;5.45;1.73;;;13.90;94.00;;;;;;6059324;23;20006;-79
2021/12/30 09:58:53;;;;;;;3.50;1.67;;;14.00;94.00;;;;;;6058790;23;20007;-79
2021/12/30 10:01:19;;;;;;;3.35;1.70;;;14.00;94.00;;;;;;6116262;23;20013;-80
2021/12/30 10:03:46;;;;;;;5.45;2.00;;;14.00;94.00;;;;;;6118177;23;20002;-79
2021/12/30 10:06:15;;;;;;;4.38;1.48;;;14.00;94.00;;;;;;6118244;23;20017;-79
2021/12/30 10:08:56;;;;;;;3.33;1.67;;;14.00;94.00;;;;;;6093973;23;20020;-79
2021/12/30 10:11:23;;;;;;;2.38;1.30;;;14.00;93.90;;;;;;6117226;23;20024;-80
2021/12/30 10:13:53;;;;;;;2.47;1.40;;;14.10;93.90;;;;;;6117367;23;19998;-80
2021/12/30 10:16:19;;;;;;;2.65;1.30;;;14.10;93.90;;;;;;6117658;23;20007;-80
2021/12/30 10:18:48;;;;;;;4.18;1.60;;;14.10;93.90;;;;;;6117429;23;20321;-80
2021/12/30 10:21:18;;;;;;;4.55;1.60;;;14.10;93.80;;;;;;6117140;23;20026;-79
2021/12/30 10:23:46;;;;;;;3.60;1.40;;;14.30;94.10;;;;;;6118988;23;20079;-80
2021/12/30 10:26:12;;;;;;;3.90;1.40;;;14.20;93.70;;;;;;6119565;23;20010;-79
2021/12/30 10:28:40;;;;;;;5.15;1.38;;;14.30;93.80;;;;;;6117945;23;20055;-79
2021/12/30 10:31:27;;;;;;;3.38;1.40;;;14.20;93.70;;;;;;6117931;23;20100;-80
2021/12/30 10:34:09;;;;;;;2.85;1.30;;;14.20;93.70;;;;;;6117398;23;20002;-80
2021/12/30 10:36:39;;;;;;;4.25;1.70;;;14.20;93.70;;;;;;6119424;23;20077;-79
2021/12/30 10:39:20;;;;;;;4.28;1.70;;;14.20;93.80;;;;;;6117671;23;19998;-79
2021/12/30 10:41:48;;;;;;;;;;;14.20;93.70;;;;;;6093720;23;20399;-79
2021/12/30 10:44:15;;;;;;;4.70;1.83;;;14.20;93.70;;;;;;6093524;23;19916;-79
2021/12/30 10:46:41;;;;;;;4.63;2.05;;;14.10;93.70;;;;;;6093350;23;20006;-79
2021/12/30 10:49:10;;;;;;;5.07;2.20;;;14.20;93.60;;;;;;6117927;23;20006;-80
2021/12/30 10:51:43;;;;;;;6.18;2.20;;;14.20;93.60;;;;;;6093978;23;20025;-79
2021/12/30 10:54:22;;;;;;;4.55;2.08;;;14.20;93.50;;;;;;6093340;23;20445;-79
2021/12/30 10:56:55;;;;;;;6.70;2.40;;;14.20;93.50;;;;;;6117213;23;20493;-79
2021/12/30 10:59:26;;;;;;;3.55;2.20;;;14.30;93.50;;;;;;6116891;23;20002;-80
2021/12/30 11:02:08;;;;;;;5.28;2.05;;;14.30;93.50;;;;;;6117242;23;20013;-80
2021/12/30 11:04:39;;;;;;;3.67;2.20;;;14.30;93.40;;;;;;6126664;23;20033;-80
2021/12/30 11:07:07;;;;;;;5.30;1.98;;;14.30;93.40;;;;;;6116847;23;20006;-81
2021/12/30 11:09:33;;;;;;;3.70;1.77;;;14.20;93.40;;;;;;6116889;23;20006;-80
2021/12/30 11:12:03;;;;;;;5.65;2.13;;;14.30;93.40;;;;;;6068857;23;20438;-80
2021/12/30 11:14:31;;;;;;;5.07;2.25;;;14.30;93.40;;;;;;6117204;23;20006;-79
2021/12/30 11:17:11;;;;;;;5.75;2.20;;;14.30;93.40;;;;;;6116965;23;20002;-79
2021/12/30 11:19:43;;;;;;;4.45;2.15;;;14.30;93.30;;;;;;6092982;23;20025;-81
2021/12/30 11:22:13;;;;;;;4.03;2.00;;;14.30;93.30;;;;;;6072355;23;20017;-80
2021/12/30 11:24:40;;;;;;;4.32;2.08;;;14.30;93.30;;;;;;6120363;23;20017;-80
2021/12/30 11:27:08;;;;;;;4.60;2.08;;;14.30;93.30;;;;;;6116734;23;20002;-79
2021/12/30 11:29:36;;;;;;;7.90;1.92;;;14.30;93.30;;;;;;6116315;23;20930;-80
2021/12/30 11:32:03;;;;;;;4.65;1.75;;;14.30;93.30;;;;;;6067568;23;20010;-80
2021/12/30 11:34:29;;;;;;;5.88;1.85;;;14.30;93.30;;;;;;6091653;23;20006;-79
2021/12/30 11:36:55;;;;;;;4.70;1.80;;;14.30;93.20;;;;;;6116009;23;20064;-81
2021/12/30 11:39:23;;;;;;;6.50;1.83;;;14.30;93.20;;;;;;6121068;23;20005;-80
2021/12/30 11:42:13;;;;;;;5.05;1.55;;;14.30;93.20;;;;;;6093042;23;20430;-80
2021/12/30 11:44:46;;;;;;;3.47;1.70;;;14.30;93.20;;;;;;6118738;23;20029;-80
2021/12/30 11:47:39;;;;;;;4.38;1.70;;;14.30;93.20;;;;;;6120763;23;20010;-80
2021/12/30 11:50:30;;;;;;;4.70;1.60;;;14.20;93.10;;;;;;6120444;23;20017;-80
2021/12/30 11:53:01;;;;;;;3.95;1.60;;;14.30;93.20;;;;;;6119144;23;20022;-80
2021/12/30 11:55:51;;;;;;;3.78;1.60;;;14.30;93.20;;;;;;6120358;23;20002;-80
2021/12/30 11:58:37;;;;;;;5.78;1.80;;;14.40;93.20;;;;;;6113759;23;20026;-79
2021/12/30 12:01:28;;;;;;;7.25;2.03;;;14.30;93.10;;;;;;6120398;23;20002;-80
2021/12/30 12:04:01;;;;;;;4.53;1.70;;;14.30;93.10;;;;;;6117542;23;20108;-80
2021/12/30 12:06:31;;;;;;;6.00;1.88;;;14.30;93.10;;;;;;6070271;23;20017;-79
2021/12/30 12:09:07;;;;;;;4.00;1.70;;;14.30;93.10;;;;;;6070571;23;20493;-81
2021/12/30 12:11:54;;;;;;;5.18;1.75;;;14.30;93.00;;;;;;6110464;23;20139;-80
2021/12/30 12:14:23;;;;;;;2.83;1.52;;;14.30;93.00;;;;;;6128099;23;20006;-80
2021/12/30 12:16:59;;;;;;;4.45;1.50;;;14.30;93.00;;;;;;6092591;23;20511;-80
2021/12/30 12:19:45;;;;;;;3.63;1.63;;;14.30;93.00;;;;;;6070809;23;20326;-80
2021/12/30 12:22:30;;;;;;;3.50;1.48;;;14.30;93.00;;;;;;6120435;23;20013;-79
2021/12/30 12:25:18;;;;;;;3.70;1.40;;;14.30;93.00;;;;;;6120299;23;20580;-79
2021/12/30 12:27:49;;;;;;;3.97;1.65;;;14.30;93.00;;;;;;6118234;23;20055;-79
2021/12/30 12:30:26;;;;;;;2.55;1.60;;;14.30;93.00;;;;;;6117649;23;20123;-79
2021/12/30 12:32:52;;;;;;;3.20;1.42;;;14.30;93.00;;;;;;6117281;23;20018;-80
2021/12/30 12:35:26;;;;;;;2.90;1.60;;;14.30;93.00;;;;;;6120542;23;20006;-81
2021/12/30 12:37:56;;;;;;;3.95;1.45;;;14.30;93.00;;;;;;6092746;23;20081;-82
2021/12/30 12:40:29;;;;;;;4.22;1.50;;;14.30;92.90;;;;;;6116883;23;19998;-82
2021/12/30 12:43:01;;;;;;;3.60;1.50;;;14.30;92.90;;;;;;6117036;23;20093;-81
2021/12/30 12:45:38;;;;;;;4.70;1.42;;;14.30;92.90;;;;;;6120415;23;20012;-81
2021/12/30 12:48:23;;;;;;;4.75;1.60;;;14.30;93.20;;;;;;6092299;23;20009;-81
2021/12/30 12:50:54;;;;;;;3.38;1.33;;;14.30;92.90;;;;;;6069960;23;20006;-79
2021/12/30 12:53:36;;;;;;;2.97;1.38;;;14.30;92.90;;;;;;6118053;23;20010;-80
2021/12/30 12:56:06;;;;;;;3.10;1.38;;;14.30;92.90;;;;;;6093669;23;20006;-82